createdAt,value
2023-08-15T00:01:22.602Z,20.13
2023-08-15T00:06:35.578Z,13.50
2023-08-15T00:11:49.812Z,12.73
2023-08-15T00:17:02.747Z,14.70
2023-08-15T00:22:17.025Z,12.83
2023-08-15T00:27:31.286Z,13.30
2023-08-15T00:32:44.196Z,16.53
2023-08-15T00:37:57.254Z,16.93
2023-08-15T00:43:11.771Z,14.87
2023-08-15T00:48:30.847Z,11.90
2023-08-15T00:53:43.831Z,14.07
2023-08-15T00:58:58.064Z,11.53
2023-08-15T01:04:11.002Z,16.70
2023-08-15T01:09:23.950Z,14.43
2023-08-15T01:14:39.581Z,13.30
2023-08-15T01:19:54.673Z,15.70
2023-08-15T01:25:09.256Z,13.03
2023-08-15T01:30:23.678Z,17.27
2023-08-15T01:35:48.619Z,14.13
2023-08-15T01:41:05.458Z,14.70
2023-08-15T01:46:18.507Z,17.20
2023-08-15T01:51:31.481Z,13.20
2023-08-15T01:56:45.783Z,14.90
2023-08-15T02:01:58.705Z,13.13
2023-08-15T02:07:11.607Z,12.40
2023-08-15T02:12:25.869Z,14.77
2023-08-15T02:17:38.818Z,17.87
2023-08-15T02:22:51.787Z,12.20
2023-08-15T02:28:06.537Z,13.90
2023-08-15T02:33:19.668Z,15.57
2023-08-15T02:38:32.593Z,12.00
2023-08-15T02:43:46.816Z,13.27
2023-08-15T02:49:00.469Z,18.33
2023-08-15T02:54:13.479Z,14.10
2023-08-15T02:59:27.721Z,13.10
2023-08-15T03:04:40.694Z,15.93
2023-08-15T03:09:53.632Z,12.40
2023-08-15T03:15:08.387Z,13.77
2023-08-15T03:20:22.048Z,19.00
2023-08-15T03:25:35.018Z,15.70
2023-08-15T03:30:49.917Z,14.40
2023-08-15T03:36:03.621Z,29.50
2023-08-15T03:41:19.889Z,15.93
2023-08-15T03:46:34.202Z,19.20
2023-08-15T03:51:47.826Z,17.00
2023-08-15T03:57:03.469Z,21.00
2023-08-15T04:02:17.928Z,16.80
2023-08-15T04:07:30.909Z,21.60
2023-08-15T04:12:43.820Z,19.70
2023-08-15T04:17:58.754Z,21.60
2023-08-15T04:23:12.113Z,20.27
2023-08-15T04:28:25.025Z,18.17
2023-08-15T04:33:39.362Z,18.83
2023-08-15T04:38:52.293Z,22.90
2023-08-15T04:44:05.438Z,21.47
2023-08-15T04:49:19.823Z,22.10
2023-08-15T04:54:33.054Z,21.10
2023-08-15T04:59:45.986Z,17.87
2023-08-15T05:05:00.293Z,18.23
2023-08-15T05:10:13.680Z,21.87
2023-08-15T05:15:29.798Z,18.23
2023-08-15T05:20:45.098Z,13.73
2023-08-15T05:25:58.035Z,13.63
2023-08-15T05:31:11.939Z,17.00
2023-08-15T05:36:26.199Z,12.70
2023-08-15T05:41:39.182Z,13.07
2023-08-15T05:46:52.221Z,13.33
2023-08-15T05:52:06.680Z,13.47
2023-08-15T05:57:19.759Z,14.30
2023-08-15T06:02:36.166Z,12.70
2023-08-15T06:07:50.516Z,13.73
2023-08-15T06:13:03.399Z,12.03
2023-08-15T06:18:16.334Z,15.07
2023-08-15T06:23:30.654Z,13.83
2023-08-15T06:28:43.576Z,10.03
2023-08-15T06:33:56.455Z,16.67
2023-08-15T06:39:12.745Z,9.80
2023-08-15T06:44:27.569Z,16.00
2023-08-15T06:49:40.652Z,15.60
2023-08-15T06:54:54.951Z,11.60
2023-08-15T07:00:12.859Z,13.13
2023-08-15T07:05:26.134Z,18.93
2023-08-15T07:10:40.543Z,13.37
2023-08-15T07:15:56.688Z,13.40
2023-08-15T07:21:10.097Z,20.13
2023-08-15T07:26:24.558Z,14.20
2023-08-15T07:31:37.524Z,13.73
2023-08-15T07:36:50.594Z,14.57
2023-08-15T07:42:04.967Z,14.70
2023-08-15T07:47:17.922Z,15.23
2023-08-15T07:52:31.016Z,14.00
2023-08-15T07:57:46.024Z,12.80
2023-08-15T08:03:00.895Z,15.93
2023-08-15T08:08:15.101Z,17.40
2023-08-15T08:13:29.611Z,18.13
2023-08-15T08:18:42.545Z,14.50
2023-08-15T08:23:55.446Z,12.30
2023-08-15T08:29:09.803Z,16.10
2023-08-15T08:34:22.696Z,11.30
2023-08-15T08:39:35.633Z,10.43
2023-08-15T08:44:50.279Z,12.47
2023-08-15T08:50:03.317Z,9.93
2023-08-15T08:55:16.841Z,16.40
2023-08-15T09:00:32.898Z,10.47
2023-08-15T09:05:46.253Z,12.80
2023-08-15T09:10:59.137Z,11.47
2023-08-15T09:16:13.413Z,12.63
2023-08-15T09:21:28.427Z,16.30
2023-08-15T09:26:41.440Z,15.10
2023-08-15T09:31:55.707Z,10.23
2023-08-15T09:37:09.491Z,10.03
2023-08-15T09:42:22.419Z,11.33
2023-08-15T09:47:37.657Z,7.83
2023-08-15T09:52:53.059Z,11.23
2023-08-15T09:58:06.230Z,10.00
2023-08-15T10:03:21.498Z,8.37
2023-08-15T10:08:34.725Z,9.40
2023-08-15T10:13:48.373Z,13.13
2023-08-15T10:19:03.617Z,9.87
2023-08-15T10:24:16.764Z,9.80
2023-08-15T10:29:30.942Z,9.83
2023-08-15T10:34:51.175Z,11.30
2023-08-15T10:40:11.399Z,8.30
2023-08-15T10:45:25.333Z,10.03
2023-08-15T10:50:44.320Z,9.03
2023-08-15T10:55:57.261Z,8.97
2023-08-15T11:01:10.453Z,6.53
2023-08-15T11:06:24.773Z,14.13
2023-08-15T11:11:37.680Z,6.90
2023-08-15T11:16:50.842Z,11.00
2023-08-15T11:22:05.374Z,17.00
2023-08-15T11:27:18.321Z,6.17
2023-08-15T11:32:31.285Z,19.50
2023-08-15T11:37:45.572Z,5.63
2023-08-15T11:42:58.514Z,5.73
2023-08-15T11:48:11.524Z,6.30
2023-08-15T11:53:25.895Z,5.77
2023-08-15T11:58:39.052Z,5.00
2023-08-15T12:03:54.372Z,5.00
2023-08-15T12:09:08.946Z,4.53
2023-08-15T12:14:22.186Z,5.07
2023-08-15T12:19:35.312Z,8.00
2023-08-15T12:24:49.629Z,8.83
2023-08-15T12:30:12.944Z,6.83
2023-08-15T12:35:28.439Z,8.20
2023-08-15T12:40:42.907Z,4.90
2023-08-15T12:45:56.728Z,6.23
2023-08-15T12:51:09.955Z,5.90
2023-08-15T12:56:24.419Z,3.67
2023-08-15T13:01:40.749Z,4.60
2023-08-15T13:06:54.121Z,4.10
2023-08-15T13:12:08.838Z,5.87
2023-08-15T13:17:22.280Z,5.40
2023-08-15T13:22:35.431Z,12.83
2023-08-15T13:27:49.720Z,4.90
2023-08-15T13:33:02.979Z,7.07
2023-08-15T13:38:15.948Z,11.03
2023-08-15T13:43:30.291Z,5.10
2023-08-15T13:48:43.217Z,5.10
2023-08-15T13:53:56.128Z,4.40
2023-08-15T13:59:10.428Z,6.10
2023-08-15T14:04:23.365Z,4.03
2023-08-15T14:09:36.278Z,3.80
2023-08-15T14:14:50.569Z,4.30
2023-08-15T14:20:04.759Z,4.33
2023-08-15T14:25:18.189Z,6.63
2023-08-15T14:30:32.571Z,5.07
2023-08-15T14:35:46.040Z,5.60
2023-08-15T14:40:59.038Z,4.53
2023-08-15T14:46:13.385Z,4.30
2023-08-15T14:51:26.325Z,4.67
2023-08-15T14:56:39.357Z,5.60
2023-08-15T15:01:53.689Z,3.43
2023-08-15T15:07:09.583Z,3.30
2023-08-15T15:12:22.538Z,4.93
2023-08-15T15:17:37.139Z,3.70
2023-08-15T15:22:50.468Z,3.47
2023-08-15T15:28:03.401Z,3.47
2023-08-15T15:33:17.753Z,5.30
2023-08-15T15:38:30.671Z,4.13
2023-08-15T15:43:43.577Z,4.00
2023-08-15T15:48:58.179Z,3.30
2023-08-15T15:54:11.099Z,3.80
2023-08-15T15:59:24.046Z,4.40
2023-08-15T16:04:38.634Z,5.30
2023-08-15T16:09:51.835Z,4.10
2023-08-15T16:15:05.095Z,6.70
2023-08-15T16:20:19.447Z,4.47
2023-08-15T16:25:32.552Z,4.40
2023-08-15T16:30:45.497Z,4.70
2023-08-15T16:35:59.903Z,3.73
2023-08-15T16:41:12.793Z,5.37
2023-08-15T16:46:25.752Z,4.90
2023-08-15T16:51:19.808Z,6.07
2023-08-15T16:56:12.456Z,3.53
2023-08-15T17:01:05.200Z,3.07
2023-08-15T17:05:57.929Z,4.60
2023-08-15T17:10:51.913Z,3.47
2023-08-15T17:15:44.526Z,5.23
2023-08-15T17:20:37.203Z,4.10
2023-08-15T17:25:29.881Z,3.43
2023-08-15T17:30:24.352Z,5.17
2023-08-15T17:35:17.096Z,8.53
2023-08-15T17:40:10.685Z,6.17
2023-08-15T17:45:03.476Z,4.07
2023-08-15T17:49:57.479Z,3.97
2023-08-15T17:54:50.208Z,3.60
2023-08-15T17:59:42.886Z,5.83
2023-08-15T18:04:36.012Z,5.47
2023-08-15T18:09:30.007Z,3.43
2023-08-15T18:14:23.023Z,4.40
2023-08-15T18:19:19.484Z,3.90
2023-08-15T18:24:12.682Z,5.33
2023-08-15T18:29:06.709Z,4.03
2023-08-15T18:33:59.346Z,5.50
2023-08-15T18:38:51.993Z,5.03
2023-08-15T18:43:44.624Z,5.13
2023-08-15T18:48:39.505Z,5.17
2023-08-15T18:53:32.107Z,3.77
2023-08-15T18:58:24.792Z,4.53
2023-08-15T19:03:17.490Z,4.00
2023-08-15T19:08:11.773Z,5.40
2023-08-15T19:13:04.570Z,4.40
2023-08-15T19:17:57.196Z,4.00
2023-08-15T19:22:49.905Z,3.83
2023-08-15T19:27:44.102Z,3.87
2023-08-15T19:32:36.898Z,4.53
2023-08-15T19:37:36.871Z,4.30
2023-08-15T19:42:30.212Z,4.20
2023-08-15T19:47:24.215Z,5.10
2023-08-15T19:52:17.694Z,4.00
2023-08-15T19:57:10.342Z,5.23
2023-08-15T20:02:03.736Z,4.57
2023-08-15T20:06:57.726Z,6.80
2023-08-15T20:11:50.637Z,4.53
2023-08-15T20:16:43.288Z,5.47
2023-08-15T20:21:36.001Z,4.60
2023-08-15T20:26:29.908Z,10.30
2023-08-15T20:31:22.651Z,4.27
2023-08-15T20:36:15.330Z,5.13
2023-08-15T20:41:08.055Z,4.90
2023-08-15T20:46:02.082Z,5.40
2023-08-15T20:50:54.742Z,5.43
2023-08-15T20:55:47.414Z,6.10
2023-08-15T21:00:40.207Z,9.90
2023-08-15T21:05:35.997Z,6.70
2023-08-15T21:10:29.986Z,9.70
2023-08-15T21:15:22.853Z,6.83
2023-08-15T21:20:15.552Z,7.57
2023-08-15T21:25:09.830Z,7.13
2023-08-15T21:30:02.517Z,8.43
2023-08-15T21:34:55.259Z,7.40
2023-08-15T21:39:47.985Z,8.13
2023-08-15T21:44:41.946Z,7.90
2023-08-15T21:49:34.568Z,11.90
2023-08-15T21:54:27.241Z,7.53
2023-08-15T21:59:19.927Z,7.30
2023-08-15T22:04:14.511Z,9.00
2023-08-15T22:09:07.650Z,8.33
2023-08-15T22:14:00.239Z,9.27
2023-08-15T22:18:52.993Z,9.43
2023-08-15T22:23:47.238Z,8.00
2023-08-15T22:28:39.868Z,8.17
2023-08-15T22:33:32.564Z,8.30
2023-08-15T22:38:25.181Z,9.60
2023-08-15T22:43:19.212Z,8.70
2023-08-15T22:48:11.914Z,10.03
2023-08-15T22:53:04.575Z,9.00
2023-08-15T22:57:57.185Z,9.40
2023-08-15T23:02:51.225Z,9.80
2023-08-15T23:07:43.839Z,14.40
2023-08-15T23:12:36.516Z,17.20
2023-08-15T23:17:29.245Z,8.67
2023-08-15T23:22:23.267Z,9.80
2023-08-15T23:27:15.956Z,8.17
2023-08-15T23:32:08.643Z,11.40
2023-08-15T23:37:01.399Z,8.90
2023-08-15T23:41:55.350Z,9.00
2023-08-15T23:46:48.623Z,10.03
2023-08-15T23:51:41.647Z,9.83
2023-08-15T23:56:34.257Z,10.40
